foto1
foto1
foto1
foto1
foto1


Bienvenue sur le site de l'Aéroclub Dassault Breguet Biarritz

Actualités:

METAR LFBZ

LFBZ 172230Z AUTO 00000KT CAVOK 22/18 Q1017 NOSIG

TAF LFBZ

TAF LFBZ 171700Z 1718/1818 01010KT 9999 SCT040 BECMG 1723/1801 07008KT PROB30 TEMPO 1810/1818 SHRA SCT050TCU

Accès Membres

Pierre Dubost et Serge Loth, respectivement correspondant prévention sécurité des régions Basse Normandie et Alsace, ont conçu un mémo a l'attention des pilotes.

Leur objectif a été de rassembler dans un document

Lire la suite...

Une nouvelle fois cette année, le F-GBIX est engagé sur le tour rêves de gosses.

Son équipage, qui est composé de Rodrigue, Laura et Marc aura le plaisir de faire découvrir l'aviation aux enfants défavorisés afin de leur permettre d'accéder au plus vieux rêve de l'homme: voler!

Lire la suite...

Le prochain rassemblement des Aéroclubs Dassault aura lieu à  Salon-de-Provence les 24 et 25 septembre 2016, l’occasion rêvée de dépoussiérer votre 1/500 000 Sud-Est !

Pour commencer, ci-dessous quelques éléments pour dégrossir l’organisation de cet événement :

Lire la suite...

Bienvenue sur le nouveau site de l'aéroclub Dassault Bréguet Biarritz.

Vous trouverez sur ce site toutes les informations du club.

Les membres pourront se connecter pour accéder à la préparation des vols.

Bonne visite

 

Réserver un avion

Pour réserver un avion cliquer sur le logo Openflyers

logo openflyers

Flux RSS

Aerobuzz

Actualité et information aéronautique